sensor_id;sensor_type;location;lat;lon;timestamp;P1;durP1;ratioP1;P2;durP2;ratioP2
76850;SDS011;65824;43.726;20.692;2023-01-25T00:01:42;16.88;;;7.45;;
76850;SDS011;65824;43.726;20.692;2023-01-25T00:04:08;14.68;;;6.50;;
76850;SDS011;65824;43.726;20.692;2023-01-25T00:06:35;14.40;;;7.00;;
76850;SDS011;65824;43.726;20.692;2023-01-25T00:09:00;15.75;;;6.95;;
76850;SDS011;65824;43.726;20.692;2023-01-25T00:11:27;14.85;;;6.60;;
76850;SDS011;65824;43.726;20.692;2023-01-25T00:13:53;15.20;;;7.10;;
76850;SDS011;65824;43.726;20.692;2023-01-25T00:16:24;14.52;;;7.15;;
76850;SDS011;65824;43.726;20.692;2023-01-25T00:18:50;14.93;;;6.38;;
76850;SDS011;65824;43.726;20.692;2023-01-25T00:21:17;13.80;;;6.32;;
76850;SDS011;65824;43.726;20.692;2023-01-25T00:23:43;14.32;;;6.30;;
76850;SDS011;65824;43.726;20.692;2023-01-25T00:26:09;14.23;;;6.07;;
76850;SDS011;65824;43.726;20.692;2023-01-25T00:28:34;14.52;;;6.28;;
76850;SDS011;65824;43.726;20.692;2023-01-25T00:31:04;14.40;;;6.40;;
76850;SDS011;65824;43.726;20.692;2023-01-25T00:39:10;23.05;;;9.00;;
76850;SDS011;65824;43.726;20.692;2023-01-25T00:44:05;17.60;;;7.45;;
76850;SDS011;65824;43.726;20.692;2023-01-25T00:46:30;21.23;;;8.90;;
76850;SDS011;65824;43.726;20.692;2023-01-25T00:48:56;17.48;;;7.68;;
76850;SDS011;65824;43.726;20.692;2023-01-25T00:51:23;18.05;;;7.90;;
76850;SDS011;65824;43.726;20.692;2023-01-25T00:53:49;16.10;;;7.75;;
76850;SDS011;65824;43.726;20.692;2023-01-25T00:56:14;15.55;;;6.88;;
76850;SDS011;65824;43.726;20.692;2023-01-25T00:58:40;14.52;;;6.47;;
76850;SDS011;65824;43.726;20.692;2023-01-25T01:01:06;16.80;;;6.57;;
76850;SDS011;65824;43.726;20.692;2023-01-25T01:03:32;16.17;;;6.35;;
76850;SDS011;65824;43.726;20.692;2023-01-25T01:05:58;13.80;;;6.68;;
76850;SDS011;65824;43.726;20.692;2023-01-25T01:08:48;14.80;;;6.13;;
76850;SDS011;65824;43.726;20.692;2023-01-25T01:13:59;19.85;;;7.85;;
76850;SDS011;65824;43.726;20.692;2023-01-25T01:16:26;16.23;;;6.65;;
76850;SDS011;65824;43.726;20.692;2023-01-25T01:19:11;13.15;;;5.82;;
76850;SDS011;65824;43.726;20.692;2023-01-25T01:21:36;13.32;;;5.57;;
76850;SDS011;65824;43.726;20.692;2023-01-25T01:24:05;15.50;;;6.43;;
76850;SDS011;65824;43.726;20.692;2023-01-25T01:26:36;12.80;;;6.13;;
76850;SDS011;65824;43.726;20.692;2023-01-25T01:29:02;16.13;;;6.50;;
76850;SDS011;65824;43.726;20.692;2023-01-25T01:31:28;14.07;;;6.18;;
76850;SDS011;65824;43.726;20.692;2023-01-25T01:33:54;13.50;;;6.03;;
76850;SDS011;65824;43.726;20.692;2023-01-25T01:36:21;10.30;;;5.15;;
76850;SDS011;65824;43.726;20.692;2023-01-25T01:38:48;13.60;;;6.03;;
76850;SDS011;65824;43.726;20.692;2023-01-25T01:41:18;10.57;;;5.13;;
76850;SDS011;65824;43.726;20.692;2023-01-25T01:43:44;14.68;;;6.50;;
76850;SDS011;65824;43.726;20.692;2023-01-25T01:51:42;12.90;;;5.68;;
76850;SDS011;65824;43.726;20.692;2023-01-25T01:54:10;13.38;;;5.57;;
76850;SDS011;65824;43.726;20.692;2023-01-25T01:56:49;12.05;;;5.13;;
76850;SDS011;65824;43.726;20.692;2023-01-25T01:59:26;14.55;;;5.72;;
76850;SDS011;65824;43.726;20.692;2023-01-25T02:01:55;12.35;;;5.13;;
76850;SDS011;65824;43.726;20.692;2023-01-25T02:04:22;12.50;;;5.20;;
76850;SDS011;65824;43.726;20.692;2023-01-25T02:06:52;12.73;;;5.47;;
76850;SDS011;65824;43.726;20.692;2023-01-25T02:09:20;12.82;;;5.47;;
76850;SDS011;65824;43.726;20.692;2023-01-25T02:11:47;15.48;;;6.40;;
76850;SDS011;65824;43.726;20.692;2023-01-25T02:14:16;13.60;;;6.55;;
76850;SDS011;65824;43.726;20.692;2023-01-25T02:16:42;15.43;;;6.85;;
76850;SDS011;65824;43.726;20.692;2023-01-25T02:19:07;12.30;;;6.25;;
76850;SDS011;65824;43.726;20.692;2023-01-25T02:21:39;12.35;;;5.68;;
76850;SDS011;65824;43.726;20.692;2023-01-25T02:26:40;13.52;;;5.85;;
76850;SDS011;65824;43.726;20.692;2023-01-25T02:29:06;13.85;;;5.90;;
76850;SDS011;65824;43.726;20.692;2023-01-25T02:31:32;13.45;;;6.43;;
76850;SDS011;65824;43.726;20.692;2023-01-25T02:33:58;12.60;;;5.97;;
76850;SDS011;65824;43.726;20.692;2023-01-25T02:36:25;11.77;;;5.30;;
76850;SDS011;65824;43.726;20.692;2023-01-25T02:39:12;10.32;;;5.13;;
76850;SDS011;65824;43.726;20.692;2023-01-25T02:41:41;13.82;;;5.70;;
76850;SDS011;65824;43.726;20.692;2023-01-25T02:44:12;14.32;;;5.63;;
76850;SDS011;65824;43.726;20.692;2023-01-25T02:46:42;10.93;;;5.25;;
76850;SDS011;65824;43.726;20.692;2023-01-25T02:49:09;13.95;;;6.10;;
76850;SDS011;65824;43.726;20.692;2023-01-25T02:51:36;12.52;;;5.35;;
76850;SDS011;65824;43.726;20.692;2023-01-25T02:54:06;17.52;;;6.15;;
76850;SDS011;65824;43.726;20.692;2023-01-25T02:56:32;15.27;;;5.65;;
76850;SDS011;65824;43.726;20.692;2023-01-25T02:58:57;13.50;;;5.88;;
76850;SDS011;65824;43.726;20.692;2023-01-25T03:01:23;15.10;;;6.00;;
76850;SDS011;65824;43.726;20.692;2023-01-25T03:03:51;14.27;;;5.75;;
76850;SDS011;65824;43.726;20.692;2023-01-25T03:06:22;12.30;;;5.28;;
76850;SDS011;65824;43.726;20.692;2023-01-25T03:08:50;12.10;;;5.60;;
76850;SDS011;65824;43.726;20.692;2023-01-25T03:11:15;12.27;;;5.55;;
76850;SDS011;65824;43.726;20.692;2023-01-25T03:13:42;11.82;;;5.00;;
76850;SDS011;65824;43.726;20.692;2023-01-25T03:16:09;14.65;;;5.72;;
76850;SDS011;65824;43.726;20.692;2023-01-25T03:18:36;12.82;;;5.70;;
76850;SDS011;65824;43.726;20.692;2023-01-25T03:21:03;10.25;;;4.53;;
76850;SDS011;65824;43.726;20.692;2023-01-25T03:23:54;11.95;;;5.32;;
76850;SDS011;65824;43.726;20.692;2023-01-25T03:26:21;12.02;;;5.47;;
76850;SDS011;65824;43.726;20.692;2023-01-25T03:28:48;12.93;;;5.53;;
76850;SDS011;65824;43.726;20.692;2023-01-25T03:31:14;13.15;;;5.05;;
76850;SDS011;65824;43.726;20.692;2023-01-25T03:33:40;11.25;;;5.53;;
76850;SDS011;65824;43.726;20.692;2023-01-25T03:36:07;13.02;;;5.35;;
76850;SDS011;65824;43.726;20.692;2023-01-25T03:38:33;12.23;;;4.95;;
76850;SDS011;65824;43.726;20.692;2023-01-25T03:40:59;13.30;;;5.28;;
76850;SDS011;65824;43.726;20.692;2023-01-25T03:43:25;12.80;;;5.35;;
76850;SDS011;65824;43.726;20.692;2023-01-25T03:45:52;13.00;;;5.78;;
76850;SDS011;65824;43.726;20.692;2023-01-25T03:48:19;12.48;;;5.45;;
76850;SDS011;65824;43.726;20.692;2023-01-25T03:50:52;11.20;;;5.35;;
76850;SDS011;65824;43.726;20.692;2023-01-25T03:53:33;13.65;;;6.07;;
76850;SDS011;65824;43.726;20.692;2023-01-25T03:56:00;13.50;;;6.07;;
76850;SDS011;65824;43.726;20.692;2023-01-25T03:58:36;14.85;;;5.78;;
76850;SDS011;65824;43.726;20.692;2023-01-25T04:01:04;14.85;;;6.13;;
76850;SDS011;65824;43.726;20.692;2023-01-25T04:03:30;13.20;;;5.75;;
76850;SDS011;65824;43.726;20.692;2023-01-25T04:05:57;14.15;;;5.20;;
76850;SDS011;65824;43.726;20.692;2023-01-25T04:08:24;15.88;;;6.68;;
76850;SDS011;65824;43.726;20.692;2023-01-25T04:10:53;13.68;;;6.40;;
76850;SDS011;65824;43.726;20.692;2023-01-25T04:13:20;12.52;;;5.80;;
76850;SDS011;65824;43.726;20.692;2023-01-25T04:15:48;18.23;;;7.55;;
76850;SDS011;65824;43.726;20.692;2023-01-25T04:18:15;12.93;;;6.03;;
76850;SDS011;65824;43.726;20.692;2023-01-25T04:20:40;13.15;;;5.75;;
76850;SDS011;65824;43.726;20.692;2023-01-25T04:23:07;14.68;;;5.70;;
76850;SDS011;65824;43.726;20.692;2023-01-25T04:25:33;16.23;;;6.32;;
76850;SDS011;65824;43.726;20.692;2023-01-25T04:27:59;15.38;;;6.65;;
76850;SDS011;65824;43.726;20.692;2023-01-25T04:30:24;15.05;;;6.43;;
76850;SDS011;65824;43.726;20.692;2023-01-25T04:32:53;17.08;;;5.95;;
76850;SDS011;65824;43.726;20.692;2023-01-25T04:35:18;13.60;;;6.05;;
76850;SDS011;65824;43.726;20.692;2023-01-25T04:37:56;10.98;;;5.10;;
76850;SDS011;65824;43.726;20.692;2023-01-25T04:40:23;15.95;;;6.20;;
76850;SDS011;65824;43.726;20.692;2023-01-25T04:42:48;15.45;;;6.18;;
76850;SDS011;65824;43.726;20.692;2023-01-25T04:45:14;19.67;;;8.15;;
76850;SDS011;65824;43.726;20.692;2023-01-25T04:47:40;16.58;;;6.93;;
76850;SDS011;65824;43.726;20.692;2023-01-25T04:50:10;14.02;;;5.72;;
76850;SDS011;65824;43.726;20.692;2023-01-25T04:52:36;11.68;;;5.18;;
76850;SDS011;65824;43.726;20.692;2023-01-25T04:55:01;15.13;;;5.80;;
76850;SDS011;65824;43.726;20.692;2023-01-25T04:57:27;15.95;;;6.57;;
76850;SDS011;65824;43.726;20.692;2023-01-25T04:59:52;14.90;;;5.80;;
76850;SDS011;65824;43.726;20.692;2023-01-25T05:02:18;16.15;;;6.10;;
76850;SDS011;65824;43.726;20.692;2023-01-25T05:04:43;11.85;;;5.95;;
76850;SDS011;65824;43.726;20.692;2023-01-25T05:07:09;12.35;;;5.22;;
76850;SDS011;65824;43.726;20.692;2023-01-25T05:09:35;13.32;;;6.20;;
76850;SDS011;65824;43.726;20.692;2023-01-25T05:12:01;14.23;;;6.30;;
76850;SDS011;65824;43.726;20.692;2023-01-25T05:14:26;14.35;;;6.22;;
76850;SDS011;65824;43.726;20.692;2023-01-25T05:16:52;11.77;;;5.60;;
76850;SDS011;65824;43.726;20.692;2023-01-25T05:19:17;14.25;;;6.70;;
76850;SDS011;65824;43.726;20.692;2023-01-25T05:21:44;13.90;;;6.00;;
76850;SDS011;65824;43.726;20.692;2023-01-25T05:26:48;16.55;;;5.35;;
76850;SDS011;65824;43.726;20.692;2023-01-25T05:29:34;11.82;;;5.15;;
76850;SDS011;65824;43.726;20.692;2023-01-25T05:34:31;12.63;;;5.10;;
76850;SDS011;65824;43.726;20.692;2023-01-25T05:36:57;10.60;;;4.55;;
76850;SDS011;65824;43.726;20.692;2023-01-25T05:39:23;12.63;;;4.82;;
76850;SDS011;65824;43.726;20.692;2023-01-25T05:41:48;12.73;;;5.75;;
76850;SDS011;65824;43.726;20.692;2023-01-25T05:44:15;12.27;;;5.63;;
76850;SDS011;65824;43.726;20.692;2023-01-25T05:46:41;12.13;;;5.22;;
76850;SDS011;65824;43.726;20.692;2023-01-25T05:49:12;13.43;;;5.45;;
76850;SDS011;65824;43.726;20.692;2023-01-25T05:51:37;15.00;;;5.65;;
76850;SDS011;65824;43.726;20.692;2023-01-25T05:54:04;16.73;;;5.65;;
76850;SDS011;65824;43.726;20.692;2023-01-25T05:56:36;16.83;;;6.18;;
76850;SDS011;65824;43.726;20.692;2023-01-25T05:59:02;11.15;;;5.03;;
76850;SDS011;65824;43.726;20.692;2023-01-25T06:01:27;15.43;;;6.40;;
76850;SDS011;65824;43.726;20.692;2023-01-25T06:03:53;22.75;;;8.88;;
76850;SDS011;65824;43.726;20.692;2023-01-25T06:06:20;16.95;;;7.78;;
76850;SDS011;65824;43.726;20.692;2023-01-25T06:08:46;15.52;;;6.55;;
76850;SDS011;65824;43.726;20.692;2023-01-25T06:11:13;23.58;;;8.70;;
76850;SDS011;65824;43.726;20.692;2023-01-25T06:13:47;26.75;;;11.32;;
76850;SDS011;65824;43.726;20.692;2023-01-25T06:16:13;16.48;;;7.03;;
76850;SDS011;65824;43.726;20.692;2023-01-25T06:18:39;14.02;;;6.60;;
76850;SDS011;65824;43.726;20.692;2023-01-25T06:21:05;15.82;;;7.00;;
76850;SDS011;65824;43.726;20.692;2023-01-25T06:23:31;19.13;;;8.07;;
76850;SDS011;65824;43.726;20.692;2023-01-25T06:25:57;19.13;;;7.72;;
76850;SDS011;65824;43.726;20.692;2023-01-25T06:28:31;21.15;;;9.38;;
76850;SDS011;65824;43.726;20.692;2023-01-25T06:31:10;20.88;;;9.18;;
76850;SDS011;65824;43.726;20.692;2023-01-25T06:33:37;17.88;;;7.47;;
76850;SDS011;65824;43.726;20.692;2023-01-25T06:36:05;17.13;;;7.85;;
76850;SDS011;65824;43.726;20.692;2023-01-25T06:38:37;18.75;;;7.93;;
76850;SDS011;65824;43.726;20.692;2023-01-25T06:41:04;19.73;;;8.40;;
76850;SDS011;65824;43.726;20.692;2023-01-25T06:43:32;18.23;;;8.77;;
76850;SDS011;65824;43.726;20.692;2023-01-25T06:46:05;20.58;;;10.02;;
76850;SDS011;65824;43.726;20.692;2023-01-25T06:48:47;21.15;;;8.88;;
76850;SDS011;65824;43.726;20.692;2023-01-25T06:51:13;24.13;;;10.27;;
76850;SDS011;65824;43.726;20.692;2023-01-25T06:53:40;24.60;;;10.02;;
76850;SDS011;65824;43.726;20.692;2023-01-25T06:56:11;21.10;;;8.55;;
76850;SDS011;65824;43.726;20.692;2023-01-25T06:58:39;22.70;;;9.57;;
76850;SDS011;65824;43.726;20.692;2023-01-25T07:01:12;23.67;;;10.32;;
76850;SDS011;65824;43.726;20.692;2023-01-25T07:03:51;24.17;;;9.50;;
76850;SDS011;65824;43.726;20.692;2023-01-25T07:06:37;21.17;;;9.07;;
76850;SDS011;65824;43.726;20.692;2023-01-25T07:09:04;22.15;;;10.07;;
76850;SDS011;65824;43.726;20.692;2023-01-25T07:11:34;20.98;;;8.95;;
76850;SDS011;65824;43.726;20.692;2023-01-25T07:13:59;23.23;;;10.77;;
76850;SDS011;65824;43.726;20.692;2023-01-25T07:16:28;22.02;;;9.70;;
76850;SDS011;65824;43.726;20.692;2023-01-25T07:19:03;17.80;;;8.45;;
76850;SDS011;65824;43.726;20.692;2023-01-25T07:21:34;16.52;;;7.40;;
76850;SDS011;65824;43.726;20.692;2023-01-25T07:23:59;17.13;;;7.95;;
76850;SDS011;65824;43.726;20.692;2023-01-25T07:26:29;18.85;;;8.30;;
76850;SDS011;65824;43.726;20.692;2023-01-25T07:28:55;18.65;;;8.63;;
76850;SDS011;65824;43.726;20.692;2023-01-25T07:31:22;25.13;;;12.50;;
76850;SDS011;65824;43.726;20.692;2023-01-25T07:33:48;17.55;;;8.30;;
76850;SDS011;65824;43.726;20.692;2023-01-25T07:36:18;22.48;;;10.80;;
76850;SDS011;65824;43.726;20.692;2023-01-25T07:38:44;24.38;;;11.35;;
76850;SDS011;65824;43.726;20.692;2023-01-25T07:41:09;18.10;;;8.98;;
76850;SDS011;65824;43.726;20.692;2023-01-25T07:43:35;23.63;;;11.32;;
76850;SDS011;65824;43.726;20.692;2023-01-25T07:46:02;21.92;;;10.25;;
76850;SDS011;65824;43.726;20.692;2023-01-25T07:48:31;25.15;;;11.90;;
76850;SDS011;65824;43.726;20.692;2023-01-25T07:51:02;24.02;;;11.45;;
76850;SDS011;65824;43.726;20.692;2023-01-25T07:53:39;26.52;;;12.63;;
76850;SDS011;65824;43.726;20.692;2023-01-25T07:56:06;18.15;;;8.32;;
76850;SDS011;65824;43.726;20.692;2023-01-25T07:58:35;21.10;;;8.57;;
76850;SDS011;65824;43.726;20.692;2023-01-25T08:01:08;21.35;;;9.68;;
76850;SDS011;65824;43.726;20.692;2023-01-25T08:03:35;20.95;;;9.63;;
76850;SDS011;65824;43.726;20.692;2023-01-25T08:06:00;20.95;;;9.93;;
76850;SDS011;65824;43.726;20.692;2023-01-25T08:08:32;22.83;;;10.02;;
76850;SDS011;65824;43.726;20.692;2023-01-25T08:11:09;25.83;;;10.23;;
76850;SDS011;65824;43.726;20.692;2023-01-25T08:13:37;18.83;;;9.18;;
76850;SDS011;65824;43.726;20.692;2023-01-25T08:16:03;23.20;;;10.05;;
76850;SDS011;65824;43.726;20.692;2023-01-25T08:18:30;25.10;;;10.75;;
76850;SDS011;65824;43.726;20.692;2023-01-25T08:20:57;25.73;;;11.10;;
76850;SDS011;65824;43.726;20.692;2023-01-25T08:23:27;24.45;;;10.57;;
76850;SDS011;65824;43.726;20.692;2023-01-25T08:25:53;25.60;;;10.48;;
76850;SDS011;65824;43.726;20.692;2023-01-25T08:28:26;26.10;;;10.88;;
76850;SDS011;65824;43.726;20.692;2023-01-25T08:30:51;26.25;;;11.02;;
76850;SDS011;65824;43.726;20.692;2023-01-25T08:33:50;26.08;;;10.60;;
76850;SDS011;65824;43.726;20.692;2023-01-25T08:36:17;25.00;;;11.23;;
76850;SDS011;65824;43.726;20.692;2023-01-25T08:38:44;22.75;;;10.30;;
76850;SDS011;65824;43.726;20.692;2023-01-25T08:41:11;26.08;;;11.48;;
76850;SDS011;65824;43.726;20.692;2023-01-25T08:43:41;31.25;;;14.13;;
76850;SDS011;65824;43.726;20.692;2023-01-25T08:46:08;26.05;;;12.05;;
76850;SDS011;65824;43.726;20.692;2023-01-25T08:48:34;25.02;;;10.60;;
76850;SDS011;65824;43.726;20.692;2023-01-25T08:51:01;32.38;;;15.10;;
76850;SDS011;65824;43.726;20.692;2023-01-25T08:53:28;22.35;;;10.55;;
76850;SDS011;65824;43.726;20.692;2023-01-25T08:55:55;21.48;;;9.27;;
76850;SDS011;65824;43.726;20.692;2023-01-25T08:58:20;24.42;;;11.63;;
76850;SDS011;65824;43.726;20.692;2023-01-25T09:00:52;18.65;;;8.27;;
76850;SDS011;65824;43.726;20.692;2023-01-25T09:03:17;33.90;;;13.23;;
76850;SDS011;65824;43.726;20.692;2023-01-25T09:05:43;37.38;;;15.15;;
76850;SDS011;65824;43.726;20.692;2023-01-25T09:08:10;25.60;;;9.82;;
76850;SDS011;65824;43.726;20.692;2023-01-25T09:10:36;20.92;;;8.18;;
76850;SDS011;65824;43.726;20.692;2023-01-25T09:13:01;25.33;;;10.88;;
76850;SDS011;65824;43.726;20.692;2023-01-25T09:15:27;20.35;;;8.73;;
76850;SDS011;65824;43.726;20.692;2023-01-25T09:17:53;27.77;;;11.20;;
76850;SDS011;65824;43.726;20.692;2023-01-25T09:20:25;27.20;;;11.23;;
76850;SDS011;65824;43.726;20.692;2023-01-25T09:22:50;23.10;;;10.82;;
76850;SDS011;65824;43.726;20.692;2023-01-25T09:25:19;20.58;;;9.50;;
76850;SDS011;65824;43.726;20.692;2023-01-25T09:27:49;21.23;;;10.43;;
76850;SDS011;65824;43.726;20.692;2023-01-25T09:32:44;24.38;;;11.20;;
76850;SDS011;65824;43.726;20.692;2023-01-25T09:35:09;26.20;;;11.07;;
76850;SDS011;65824;43.726;20.692;2023-01-25T09:37:39;24.95;;;10.70;;
76850;SDS011;65824;43.726;20.692;2023-01-25T09:40:17;17.48;;;7.22;;
76850;SDS011;65824;43.726;20.692;2023-01-25T09:42:52;21.13;;;9.25;;
76850;SDS011;65824;43.726;20.692;2023-01-25T09:45:31;17.17;;;7.25;;
76850;SDS011;65824;43.726;20.692;2023-01-25T09:56:49;14.48;;;6.18;;
76850;SDS011;65824;43.726;20.692;2023-01-25T09:59:24;16.13;;;7.55;;
76850;SDS011;65824;43.726;20.692;2023-01-25T10:04:34;20.52;;;8.90;;
76850;SDS011;65824;43.726;20.692;2023-01-25T10:07:47;17.55;;;7.05;;
76850;SDS011;65824;43.726;20.692;2023-01-25T10:10:13;19.85;;;7.38;;
76850;SDS011;65824;43.726;20.692;2023-01-25T10:12:43;14.70;;;6.45;;
76850;SDS011;65824;43.726;20.692;2023-01-25T10:15:27;14.55;;;6.82;;
76850;SDS011;65824;43.726;20.692;2023-01-25T10:18:11;16.42;;;8.10;;
76850;SDS011;65824;43.726;20.692;2023-01-25T10:21:00;21.98;;;10.23;;
76850;SDS011;65824;43.726;20.692;2023-01-25T10:23:40;16.90;;;7.13;;
76850;SDS011;65824;43.726;20.692;2023-01-25T10:34:18;16.17;;;7.05;;
76850;SDS011;65824;43.726;20.692;2023-01-25T10:37:31;19.17;;;9.05;;
76850;SDS011;65824;43.726;20.692;2023-01-25T10:45:42;13.18;;;6.55;;
76850;SDS011;65824;43.726;20.692;2023-01-25T10:51:27;13.98;;;6.30;;
76850;SDS011;65824;43.726;20.692;2023-01-25T10:54:01;14.52;;;6.82;;
76850;SDS011;65824;43.726;20.692;2023-01-25T10:56:28;16.95;;;6.93;;
76850;SDS011;65824;43.726;20.692;2023-01-25T10:59:05;12.30;;;6.15;;
76850;SDS011;65824;43.726;20.692;2023-01-25T11:01:32;12.68;;;6.13;;
76850;SDS011;65824;43.726;20.692;2023-01-25T11:03:59;13.45;;;6.15;;
76850;SDS011;65824;43.726;20.692;2023-01-25T11:08:57;16.80;;;7.40;;
76850;SDS011;65824;43.726;20.692;2023-01-25T11:11:25;14.13;;;6.57;;
76850;SDS011;65824;43.726;20.692;2023-01-25T11:14:12;12.10;;;5.65;;
76850;SDS011;65824;43.726;20.692;2023-01-25T11:16:43;15.48;;;6.50;;
76850;SDS011;65824;43.726;20.692;2023-01-25T11:22:21;17.75;;;6.95;;
76850;SDS011;65824;43.726;20.692;2023-01-25T11:24:53;12.15;;;6.15;;
76850;SDS011;65824;43.726;20.692;2023-01-25T11:27:23;16.60;;;7.28;;
76850;SDS011;65824;43.726;20.692;2023-01-25T11:32:33;14.45;;;6.85;;
76850;SDS011;65824;43.726;20.692;2023-01-25T11:34:59;20.02;;;7.85;;
76850;SDS011;65824;43.726;20.692;2023-01-25T11:37:42;17.00;;;7.53;;
76850;SDS011;65824;43.726;20.692;2023-01-25T11:40:20;12.38;;;5.53;;
76850;SDS011;65824;43.726;20.692;2023-01-25T11:48:32;17.30;;;7.35;;
76850;SDS011;65824;43.726;20.692;2023-01-25T11:59:59;14.52;;;7.47;;
76850;SDS011;65824;43.726;20.692;2023-01-25T12:05:17;14.93;;;7.35;;
76850;SDS011;65824;43.726;20.692;2023-01-25T12:10:21;19.60;;;8.82;;
76850;SDS011;65824;43.726;20.692;2023-01-25T12:12:55;14.52;;;7.55;;
76850;SDS011;65824;43.726;20.692;2023-01-25T12:24:33;19.67;;;9.10;;
76850;SDS011;65824;43.726;20.692;2023-01-25T12:29:57;16.13;;;8.15;;
76850;SDS011;65824;43.726;20.692;2023-01-25T12:32:46;17.92;;;8.82;;
76850;SDS011;65824;43.726;20.692;2023-01-25T12:35:22;16.25;;;8.60;;
76850;SDS011;65824;43.726;20.692;2023-01-25T12:37:54;17.17;;;8.38;;
76850;SDS011;65824;43.726;20.692;2023-01-25T12:43:37;19.27;;;10.05;;
76850;SDS011;65824;43.726;20.692;2023-01-25T12:46:17;19.83;;;10.05;;
76850;SDS011;65824;43.726;20.692;2023-01-25T12:48:49;15.43;;;7.90;;
76850;SDS011;65824;43.726;20.692;2023-01-25T12:51:17;16.95;;;7.75;;
76850;SDS011;65824;43.726;20.692;2023-01-25T12:53:46;16.45;;;7.15;;
76850;SDS011;65824;43.726;20.692;2023-01-25T12:56:36;16.02;;;8.20;;
76850;SDS011;65824;43.726;20.692;2023-01-25T13:05:02;18.20;;;8.23;;
76850;SDS011;65824;43.726;20.692;2023-01-25T13:07:44;16.55;;;7.93;;
76850;SDS011;65824;43.726;20.692;2023-01-25T13:10:23;17.80;;;8.18;;
76850;SDS011;65824;43.726;20.692;2023-01-25T13:13:01;20.02;;;8.48;;
76850;SDS011;65824;43.726;20.692;2023-01-25T13:20:59;16.45;;;8.65;;
76850;SDS011;65824;43.726;20.692;2023-01-25T13:23:34;21.15;;;9.52;;
76850;SDS011;65824;43.726;20.692;2023-01-25T13:32:10;21.63;;;10.77;;
76850;SDS011;65824;43.726;20.692;2023-01-25T13:34:59;21.13;;;10.18;;
76850;SDS011;65824;43.726;20.692;2023-01-25T13:37:32;19.98;;;9.45;;
76850;SDS011;65824;43.726;20.692;2023-01-25T13:40:34;24.80;;;9.43;;
76850;SDS011;65824;43.726;20.692;2023-01-25T13:43:04;17.55;;;8.77;;
76850;SDS011;65824;43.726;20.692;2023-01-25T13:45:37;17.65;;;8.30;;
76850;SDS011;65824;43.726;20.692;2023-01-25T13:48:13;19.23;;;9.38;;
76850;SDS011;65824;43.726;20.692;2023-01-25T13:50:46;19.60;;;9.90;;
76850;SDS011;65824;43.726;20.692;2023-01-25T13:55:44;18.70;;;8.50;;
76850;SDS011;65824;43.726;20.692;2023-01-25T13:58:17;13.70;;;7.55;;
76850;SDS011;65824;43.726;20.692;2023-01-25T14:00:53;17.45;;;9.25;;
76850;SDS011;65824;43.726;20.692;2023-01-25T14:03:28;20.83;;;9.52;;
76850;SDS011;65824;43.726;20.692;2023-01-25T14:06:00;23.83;;;11.80;;
76850;SDS011;65824;43.726;20.692;2023-01-25T14:08:28;27.70;;;12.00;;
76850;SDS011;65824;43.726;20.692;2023-01-25T14:10:54;21.42;;;9.82;;
76850;SDS011;65824;43.726;20.692;2023-01-25T14:13:20;21.42;;;8.70;;
76850;SDS011;65824;43.726;20.692;2023-01-25T14:15:50;16.70;;;7.82;;
76850;SDS011;65824;43.726;20.692;2023-01-25T14:18:26;21.00;;;9.63;;
76850;SDS011;65824;43.726;20.692;2023-01-25T14:21:07;19.50;;;8.82;;
76850;SDS011;65824;43.726;20.692;2023-01-25T14:23:34;20.00;;;9.50;;
76850;SDS011;65824;43.726;20.692;2023-01-25T14:25:59;19.55;;;9.80;;
76850;SDS011;65824;43.726;20.692;2023-01-25T14:28:34;20.98;;;9.65;;
76850;SDS011;65824;43.726;20.692;2023-01-25T14:31:00;14.65;;;7.72;;
76850;SDS011;65824;43.726;20.692;2023-01-25T14:33:27;45.17;;;21.45;;
76850;SDS011;65824;43.726;20.692;2023-01-25T14:36:06;22.30;;;9.98;;
76850;SDS011;65824;43.726;20.692;2023-01-25T14:38:37;20.77;;;10.13;;
76850;SDS011;65824;43.726;20.692;2023-01-25T14:43:46;23.98;;;9.70;;
76850;SDS011;65824;43.726;20.692;2023-01-25T14:46:17;18.50;;;8.90;;
76850;SDS011;65824;43.726;20.692;2023-01-25T14:48:43;18.80;;;9.18;;
76850;SDS011;65824;43.726;20.692;2023-01-25T14:51:10;25.00;;;13.20;;
76850;SDS011;65824;43.726;20.692;2023-01-25T14:53:42;21.35;;;9.90;;
76850;SDS011;65824;43.726;20.692;2023-01-25T14:58:53;19.42;;;9.82;;
76850;SDS011;65824;43.726;20.692;2023-01-25T15:01:30;22.60;;;9.82;;
76850;SDS011;65824;43.726;20.692;2023-01-25T15:04:12;22.92;;;10.60;;
76850;SDS011;65824;43.726;20.692;2023-01-25T15:06:57;22.58;;;11.02;;
76850;SDS011;65824;43.726;20.692;2023-01-25T15:09:33;19.75;;;9.30;;
76850;SDS011;65824;43.726;20.692;2023-01-25T15:14:58;21.20;;;10.38;;
76850;SDS011;65824;43.726;20.692;2023-01-25T15:22:51;23.80;;;12.32;;
76850;SDS011;65824;43.726;20.692;2023-01-25T15:25:26;25.00;;;10.90;;
76850;SDS011;65824;43.726;20.692;2023-01-25T15:27:52;24.30;;;11.15;;
76850;SDS011;65824;43.726;20.692;2023-01-25T15:30:18;25.52;;;11.40;;
76850;SDS011;65824;43.726;20.692;2023-01-25T15:32:46;22.30;;;11.38;;
76850;SDS011;65824;43.726;20.692;2023-01-25T15:35:12;28.25;;;13.10;;
76850;SDS011;65824;43.726;20.692;2023-01-25T15:37:46;26.80;;;12.52;;
76850;SDS011;65824;43.726;20.692;2023-01-25T15:40:12;22.40;;;10.07;;
76850;SDS011;65824;43.726;20.692;2023-01-25T15:42:40;20.55;;;9.25;;
76850;SDS011;65824;43.726;20.692;2023-01-25T15:45:08;21.63;;;9.38;;
76850;SDS011;65824;43.726;20.692;2023-01-25T15:47:36;21.90;;;10.05;;
76850;SDS011;65824;43.726;20.692;2023-01-25T15:50:08;25.30;;;11.55;;
76850;SDS011;65824;43.726;20.692;2023-01-25T15:52:42;31.23;;;12.10;;
76850;SDS011;65824;43.726;20.692;2023-01-25T15:55:14;22.00;;;12.40;;
76850;SDS011;65824;43.726;20.692;2023-01-25T15:57:40;21.85;;;11.13;;
76850;SDS011;65824;43.726;20.692;2023-01-25T16:00:13;21.10;;;10.85;;
76850;SDS011;65824;43.726;20.692;2023-01-25T16:02:49;22.85;;;11.35;;
76850;SDS011;65824;43.726;20.692;2023-01-25T16:05:23;25.75;;;12.00;;
76850;SDS011;65824;43.726;20.692;2023-01-25T16:07:49;31.88;;;14.05;;
76850;SDS011;65824;43.726;20.692;2023-01-25T16:13:22;27.00;;;13.55;;
76850;SDS011;65824;43.726;20.692;2023-01-25T16:15:55;22.17;;;10.68;;
76850;SDS011;65824;43.726;20.692;2023-01-25T16:18:21;24.92;;;11.95;;
76850;SDS011;65824;43.726;20.692;2023-01-25T16:20:48;27.00;;;12.57;;
76850;SDS011;65824;43.726;20.692;2023-01-25T16:23:15;28.55;;;13.30;;
76850;SDS011;65824;43.726;20.692;2023-01-25T16:25:48;39.53;;;14.63;;
76850;SDS011;65824;43.726;20.692;2023-01-25T16:28:23;37.30;;;14.27;;
76850;SDS011;65824;43.726;20.692;2023-01-25T16:30:49;31.55;;;12.88;;
76850;SDS011;65824;43.726;20.692;2023-01-25T16:33:15;25.63;;;11.63;;
76850;SDS011;65824;43.726;20.692;2023-01-25T16:35:40;29.23;;;12.70;;
76850;SDS011;65824;43.726;20.692;2023-01-25T16:38:07;26.17;;;12.25;;
76850;SDS011;65824;43.726;20.692;2023-01-25T16:40:35;25.02;;;11.38;;
76850;SDS011;65824;43.726;20.692;2023-01-25T16:43:09;25.95;;;11.73;;
76850;SDS011;65824;43.726;20.692;2023-01-25T16:45:34;26.90;;;13.18;;
76850;SDS011;65824;43.726;20.692;2023-01-25T16:48:10;31.48;;;12.23;;
76850;SDS011;65824;43.726;20.692;2023-01-25T16:50:39;23.92;;;11.02;;